< < Back
Terminal Aerodrome Forecast


Current Version              Previous Versions:   1  2  3  4  5  6  7  8  9  

Terminal Aerodrome Forecast

425
FTUS42 KGSP 012335
TAFAVL
TAF
KAVL 012335Z 0200/0224 33006KT P6SM BKN100
     FM021500 31006KT P6SM VCSH SCT050
     FM021800 28005KT P6SM BKN050 PROB30 0218/0222 4SM -TSRA
      OVC035CB=



Latest METAR

785
SAUS70 KWBC 020200 RRC
MTRAVL
METAR KAVL 020154Z 00000KT 10SM BKN070 26/15 A3008 RMK AO2 SLP155
T02560150


USA.gov is the U.S. government's official web portal to all federal, state and local government web resources and services.